Česky Dansk Deutsch English Español Suomi Français Magyar Italiano Nederlands norsk Polski Português svenska Türkçe

 

Het Weer

Trapani / Birgi (Italië)

10:55, 19 augustus 2016 (GMT)

NWNNE
WE
SWSSE
Home            
Trapani / Birgi Palermo / Punta Raisi Palermo Boccadifalco Ustica Pantelleria Enna Kelibia Gela Comiso As Usaf Catania / Sigonella Catania / Fontanarossa Tunis-Carthage Bizerte Lampedusa Messina Cozzo Spadaro Reggio Calabria Habib Bourguiba Luqa Capo Carbonara Monastir-Skanes Capo S. Lorenzo Capri

Om een weerknop op uw website of weblog te plaatsen, copieer onderstaande code en plak die in uw pagina. In het eerste vakje staat HTML-code, in het tweede vakje UBB-code.


Add to Google

Details

Wind speed:3 bf, 8 kn, 4.1 m/s, 9.2 miles/h, 14.8 km/h
Wind direction:NW, 320°
Visibility:Greater than 10000 m, 10 km, 32800 ft, 6.2 miles
Clouds:CAVOC
Temperature:29°C, 84°F
Gefühlte Temperatur:31°C, 87°F
Dew-point:20°C, 68°F
Atmospheric pressure:1013 hPa, 759.8 mmHg, 29.91 inHg, 1.000 atm
Relative humidity:58.4 %
METAR:LICT 191055Z 32008KT CAVOK 29/20 Q1013

Snelkoppelingen

Actuele weersinformatie van de hele wereld. Voeg locaties toe met het plus (+) symbool. Deze snelkoppelingen kunnen worden toegevoegd aan Google.

Lid van de Technetium groep

website free tracking
StatCounter NetStat W3C Validator

04-10-2022 04:49:27
astro.technetium.be money.technetium.be phote.technetium.be tafeltennistafel.technetium.be www.ligfiets.net